Decoded Metar for KPSF (PITTSFIELD in MA, USA) (IATA:PSF) | Meteo·Mobile Aviation Weather
aviador You're here:

KPSF Decoded Metar

PITTSFIELD in MA, USA
Report Time2018-09-18 21:54:00
UTC Time2018-09-18 22:04:13
Flight Rules vfr VFR
Wind320° at 04 kt
W.Decomp.*RWY 32: 3.9 kt HW 1.0 kt RCW
RWY 26: 1.0 kt HW 3.9 kt RCW
W.Rank320° ranks 11
Current wind is below 320° avg. (7.7)
Visibility9999 m
Phenomena:N/A
Clouds:N/A
Expected CloudBase > 2,800 ft AGL from Temp-Dew spread
CeilingNone
Temp25°C (ISA +12)
Dew Point18°C (65% RH)
QNH1008 hPa
Density Alt3,035 ft
Elevation1,165 ft
Report Wrong Elevation
Raw Report
KPSF 182154Z AUTO 32004KT 10SM CLR 25/18 A2978 RMK AO2 SLP058
T02500178=

Extra information for KPSF:More info

Metar Taf Metar & Taf Last 4 Metars F.Rules Stats Wind Profile Meteogram Temp Stats Airport Information Weather charts Add Link Nearby VenuesMetar ALERT Operation Metar Decoded Social comments

AIRNAV info for KPSF